createdAt,value
2022-09-16T00:00:51.631Z,21.50
2022-09-16T00:03:19.067Z,21.50
2022-09-16T00:05:49.003Z,21.50
2022-09-16T00:08:17.204Z,21.50
2022-09-16T00:10:44.576Z,21.50
2022-09-16T00:13:13.217Z,21.40
2022-09-16T00:15:49.111Z,21.40
2022-09-16T00:18:16.017Z,21.40
2022-09-16T00:20:47.871Z,21.30
2022-09-16T00:23:15.231Z,21.30
2022-09-16T00:25:42.278Z,21.30
2022-09-16T00:28:09.216Z,21.30
2022-09-16T00:30:36.311Z,21.30
2022-09-16T00:33:03.420Z,21.30
2022-09-16T00:35:30.393Z,21.30
2022-09-16T00:37:57.329Z,21.30
2022-09-16T00:40:24.373Z,21.30
2022-09-16T00:42:51.384Z,21.30
2022-09-16T00:45:24.166Z,21.30
2022-09-16T00:47:57.942Z,21.30
2022-09-16T00:50:48.767Z,21.30
2022-09-16T00:53:27.995Z,21.30
2022-09-16T00:55:57.824Z,21.30
2022-09-16T00:58:51.479Z,21.20
2022-09-16T01:01:18.924Z,21.20
2022-09-16T01:03:51.680Z,21.20
2022-09-16T01:06:19.593Z,21.20
2022-09-16T01:08:49.367Z,21.20
2022-09-16T01:11:16.581Z,21.20
2022-09-16T01:13:45.871Z,21.20
2022-09-16T01:16:18.195Z,21.20
2022-09-16T01:19:15.954Z,21.20
2022-09-16T01:22:03.588Z,21.20
2022-09-16T01:24:51.784Z,21.20
2022-09-16T01:27:26.198Z,21.20
2022-09-16T01:30:11.076Z,21.10
2022-09-16T01:32:40.980Z,21.10
2022-09-16T01:35:26.821Z,21.10
2022-09-16T01:38:14.753Z,21.10
2022-09-16T01:41:23.805Z,21.10
2022-09-16T01:44:03.718Z,21.00
2022-09-16T01:46:57.122Z,21.00
2022-09-16T01:49:42.908Z,20.90
2022-09-16T01:52:16.040Z,20.80
2022-09-16T01:55:20.455Z,20.80
2022-09-16T01:57:59.157Z,20.90
2022-09-16T02:00:26.455Z,20.80
2022-09-16T02:03:07.645Z,20.80
2022-09-16T02:05:43.016Z,20.80
2022-09-16T02:08:17.707Z,20.80
2022-09-16T02:10:50.983Z,20.80
2022-09-16T02:13:26.519Z,20.80
2022-09-16T02:15:58.785Z,20.80
2022-09-16T02:18:30.554Z,20.80
2022-09-16T02:21:00.707Z,20.80
2022-09-16T02:23:33.310Z,20.70
2022-09-16T02:26:01.907Z,20.80
2022-09-16T02:28:36.896Z,20.70
2022-09-16T02:31:07.941Z,20.80
2022-09-16T02:33:47.536Z,20.80
2022-09-16T02:36:20.702Z,20.80
2022-09-16T02:38:53.271Z,20.70
2022-09-16T02:41:20.439Z,20.70
2022-09-16T02:43:47.362Z,20.60
2022-09-16T02:46:31.156Z,20.60
2022-09-16T02:49:21.833Z,20.60
2022-09-16T02:52:13.529Z,20.60
2022-09-16T02:55:00.715Z,20.60
2022-09-16T02:57:28.249Z,20.60
2022-09-16T02:59:55.295Z,20.50
2022-09-16T03:02:22.608Z,20.50
2022-09-16T03:04:49.627Z,20.50
2022-09-16T03:07:17.210Z,20.50
2022-09-16T03:09:46.940Z,20.50
2022-09-16T03:12:37.075Z,20.50
2022-09-16T03:15:42.420Z,20.50
2022-09-16T03:18:32.318Z,20.40
2022-09-16T03:21:17.686Z,20.40
2022-09-16T03:24:00.441Z,20.40
2022-09-16T03:26:47.608Z,20.40
2022-09-16T03:29:32.508Z,20.40
2022-09-16T03:32:17.731Z,20.40
2022-09-16T03:35:04.357Z,20.40
2022-09-16T03:37:36.980Z,20.40
2022-09-16T03:40:15.838Z,20.40
2022-09-16T03:42:44.170Z,20.40
2022-09-16T03:45:22.044Z,20.30
2022-09-16T03:47:50.944Z,20.30
2022-09-16T03:50:19.074Z,20.30
2022-09-16T03:52:46.215Z,20.30
2022-09-16T03:55:13.596Z,20.40
2022-09-16T03:57:40.541Z,20.40
2022-09-16T04:00:08.758Z,20.40
2022-09-16T04:02:38.972Z,20.40
2022-09-16T04:05:06.447Z,20.40
2022-09-16T04:07:33.720Z,20.30
2022-09-16T04:10:01.715Z,20.30
2022-09-16T04:12:29.315Z,20.30
2022-09-16T04:14:56.433Z,20.30
2022-09-16T04:17:23.759Z,20.20
2022-09-16T04:19:51.506Z,20.20
2022-09-16T04:22:18.605Z,20.10
2022-09-16T04:24:45.534Z,20.10
2022-09-16T04:27:12.437Z,20.20
2022-09-16T04:29:39.353Z,20.10
2022-09-16T04:32:06.307Z,20.10
2022-09-16T04:34:33.708Z,20.10
2022-09-16T04:37:00.659Z,20.20
2022-09-16T04:39:27.640Z,20.10
2022-09-16T04:41:54.560Z,20.20
2022-09-16T04:44:21.609Z,20.20
2022-09-16T04:46:48.580Z,20.20
2022-09-16T04:49:15.559Z,20.20
2022-09-16T04:51:42.508Z,20.20
2022-09-16T04:54:09.736Z,20.20
2022-09-16T04:56:36.681Z,20.20
2022-09-16T04:59:04.954Z,20.20
2022-09-16T05:01:34.166Z,20.20
2022-09-16T05:04:04.243Z,20.10
2022-09-16T05:06:34.214Z,20.10
2022-09-16T05:09:01.627Z,20.20
2022-09-16T05:11:31.448Z,20.20
2022-09-16T05:14:03.193Z,20.20
2022-09-16T05:16:30.788Z,20.30
2022-09-16T05:18:59.931Z,20.30
2022-09-16T05:21:28.685Z,20.40
2022-09-16T05:23:59.680Z,20.40
2022-09-16T05:26:29.507Z,20.50
2022-09-16T05:28:56.418Z,20.60
2022-09-16T05:31:27.250Z,20.70
2022-09-16T05:34:23.126Z,20.90
2022-09-16T05:36:53.966Z,21.10
2022-09-16T05:39:23.725Z,21.20
2022-09-16T05:41:56.251Z,21.40
2022-09-16T05:44:23.948Z,21.80
2022-09-16T05:46:50.911Z,22.20
2022-09-16T05:49:21.252Z,22.70
2022-09-16T05:51:49.207Z,23.20
2022-09-16T05:54:18.619Z,23.90
2022-09-16T05:56:46.587Z,24.50
2022-09-16T05:59:14.458Z,25.00
2022-09-16T06:01:41.794Z,25.50
2022-09-16T06:04:12.004Z,26.00
2022-09-16T06:06:41.503Z,26.20
2022-09-16T06:09:14.972Z,25.80
2022-09-16T06:11:44.469Z,25.30
2022-09-16T06:14:13.175Z,25.30
2022-09-16T06:16:40.847Z,25.80
2022-09-16T06:19:11.055Z,26.30
2022-09-16T06:21:38.992Z,26.70
2022-09-16T06:24:10.047Z,27.10
2022-09-16T06:26:41.656Z,27.30
2022-09-16T06:29:09.573Z,27.50
2022-09-16T06:31:37.930Z,27.80
2022-09-16T06:34:06.004Z,28.20
2022-09-16T06:36:42.731Z,28.70
2022-09-16T06:39:13.816Z,29.30
2022-09-16T06:41:41.695Z,30.10
2022-09-16T06:44:08.947Z,30.80
2022-09-16T06:46:36.523Z,31.10
2022-09-16T06:49:06.221Z,31.10
2022-09-16T06:51:34.736Z,31.50
2022-09-16T06:54:07.128Z,32.20
2022-09-16T06:56:36.124Z,32.60
2022-09-16T06:59:03.719Z,32.60
2022-09-16T07:01:31.755Z,32.10
2022-09-16T07:04:01.775Z,31.30
2022-09-16T07:09:17.167Z,29.60
2022-09-16T07:11:44.114Z,28.90
2022-09-16T07:14:11.087Z,29.10
2022-09-16T07:16:38.080Z,29.60
2022-09-16T07:19:05.384Z,30.10
2022-09-16T07:21:32.581Z,30.50
2022-09-16T07:24:01.652Z,30.90
2022-09-16T07:26:34.227Z,30.90
2022-09-16T07:29:03.724Z,31.70
2022-09-16T07:32:04.872Z,31.40
2022-09-16T07:34:59.291Z,30.40
2022-09-16T08:40:27.323Z,29.10
2022-09-16T08:43:00.411Z,29.40
2022-09-16T08:45:35.741Z,29.70
2022-09-16T08:48:43.071Z,30.10
2022-09-16T08:51:15.959Z,30.20
2022-09-16T08:53:49.872Z,30.20
2022-09-16T08:56:21.888Z,30.40
2022-09-16T08:58:54.044Z,30.40
2022-09-16T09:01:20.962Z,30.30
2022-09-16T09:03:49.021Z,30.00
2022-09-16T09:06:27.834Z,29.80
2022-09-16T09:08:57.760Z,29.70
2022-09-16T09:11:35.483Z,29.50
2022-09-16T09:14:09.612Z,29.40
2022-09-16T09:16:51.693Z,29.40
2022-09-16T09:19:50.073Z,29.50
2022-09-16T09:22:38.924Z,29.00
2022-09-16T09:25:22.763Z,28.70
2022-09-16T09:28:11.304Z,28.50
2022-09-16T09:30:44.532Z,28.50
2022-09-16T09:33:57.944Z,28.60
2022-09-16T09:37:03.440Z,28.70
2022-09-16T09:39:53.129Z,28.70
2022-09-16T09:42:26.001Z,28.50
2022-09-16T09:45:13.744Z,28.70
2022-09-16T09:47:47.439Z,28.90
2022-09-16T09:50:24.363Z,28.60
2022-09-16T09:53:11.519Z,28.70
2022-09-16T09:55:41.334Z,28.90
2022-09-16T09:58:32.594Z,29.10
2022-09-16T10:00:59.654Z,29.10
2022-09-16T10:03:28.526Z,29.10
2022-09-16T10:05:56.044Z,29.30
2022-09-16T10:08:44.718Z,29.40
2022-09-16T10:11:24.483Z,29.70
2022-09-16T10:13:58.011Z,30.10
2022-09-16T10:16:38.265Z,30.10
2022-09-16T10:19:06.932Z,30.10
2022-09-16T10:21:49.740Z,30.00
2022-09-16T10:24:36.096Z,30.00
2022-09-16T10:27:23.281Z,30.00
2022-09-16T10:30:15.307Z,29.80
2022-09-16T10:32:48.198Z,30.40
2022-09-16T10:35:23.270Z,30.40
2022-09-16T10:37:53.669Z,30.50
2022-09-16T10:40:23.391Z,30.80
2022-09-16T10:42:57.095Z,30.50
2022-09-16T10:45:52.088Z,30.00
2022-09-16T10:48:50.284Z,29.40
2022-09-16T10:51:44.586Z,29.00
2022-09-16T10:54:40.814Z,29.30
2022-09-16T10:57:50.471Z,29.20
2022-09-16T11:00:58.828Z,29.20
2022-09-16T11:04:33.386Z,29.00
2022-09-16T11:07:43.150Z,29.00
2022-09-16T11:10:52.764Z,29.10
2022-09-16T11:13:52.658Z,29.40
2022-09-16T11:17:30.061Z,29.70
2022-09-16T11:20:41.701Z,29.80
2022-09-16T11:24:06.406Z,30.10
2022-09-16T11:26:38.193Z,30.10
2022-09-16T11:29:27.230Z,30.20
2022-09-16T11:32:35.361Z,30.00
2022-09-16T11:35:23.227Z,29.70
2022-09-16T11:37:57.484Z,29.60
2022-09-16T11:40:33.268Z,29.70
2022-09-16T11:43:21.309Z,29.80
2022-09-16T11:45:56.496Z,29.70
2022-09-16T11:48:40.656Z,29.40
2022-09-16T11:51:24.323Z,29.30
2022-09-16T11:54:06.045Z,29.00
2022-09-16T11:56:43.377Z,28.90
2022-09-16T11:59:26.140Z,28.90
2022-09-16T12:02:18.075Z,29.10
2022-09-16T12:04:57.848Z,29.60
2022-09-16T12:07:39.710Z,30.00
2022-09-16T12:10:27.809Z,30.00
2022-09-16T12:13:05.059Z,29.60
2022-09-16T12:15:48.528Z,29.40
2022-09-16T12:18:35.008Z,29.20
2022-09-16T12:21:21.192Z,29.30
2022-09-16T12:24:32.068Z,29.60
2022-09-16T12:27:36.615Z,29.60
2022-09-16T12:30:13.177Z,29.70
2022-09-16T12:32:49.395Z,29.80
2022-09-16T12:35:22.990Z,30.00
2022-09-16T12:37:51.848Z,29.90
2022-09-16T12:40:29.080Z,29.80
2022-09-16T12:43:17.131Z,29.80
2022-09-16T12:46:17.438Z,30.30
2022-09-16T12:49:02.778Z,30.40
2022-09-16T12:51:55.329Z,30.50
2022-09-16T12:54:22.221Z,30.80
2022-09-16T12:56:56.100Z,31.00
2022-09-16T12:59:49.980Z,31.20
2022-09-16T13:02:29.720Z,31.40
2022-09-16T13:05:01.971Z,31.30
2022-09-16T13:07:34.223Z,31.00
2022-09-16T13:10:08.844Z,31.00
2022-09-16T13:12:43.103Z,30.90
2022-09-16T13:15:34.037Z,30.40
2022-09-16T13:18:23.750Z,30.10
2022-09-16T13:21:00.110Z,29.70
2022-09-16T13:23:34.531Z,29.30
2022-09-16T13:26:03.168Z,29.00
2022-09-16T13:28:32.875Z,28.70
2022-09-16T13:31:33.967Z,28.40
2022-09-16T13:34:01.270Z,28.60
2022-09-16T13:36:29.734Z,28.60
2022-09-16T13:38:59.548Z,28.70
2022-09-16T13:41:43.693Z,29.00
2022-09-16T13:44:41.610Z,29.40
2022-09-16T13:47:11.770Z,29.70
2022-09-16T13:49:50.419Z,30.10
2022-09-16T13:52:31.199Z,30.40
2022-09-16T13:55:12.343Z,30.60
2022-09-16T13:57:53.148Z,30.80
2022-09-16T14:00:36.077Z,31.00
2022-09-16T14:03:56.781Z,30.90
2022-09-16T14:06:51.534Z,30.80
2022-09-16T14:10:03.453Z,30.40
2022-09-16T14:12:42.045Z,30.10
2022-09-16T14:15:09.865Z,29.70
2022-09-16T14:17:51.181Z,29.70
2022-09-16T14:20:22.381Z,29.80
2022-09-16T14:22:59.911Z,29.80
2022-09-16T14:25:29.608Z,29.60
2022-09-16T14:28:20.789Z,29.50
2022-09-16T14:30:59.261Z,29.50
2022-09-16T14:33:29.456Z,29.60
2022-09-16T14:35:57.703Z,29.50
2022-09-16T14:39:07.093Z,29.60
2022-09-16T14:41:36.320Z,30.10
2022-09-16T14:44:20.776Z,30.60
2022-09-16T14:46:56.785Z,31.00
2022-09-16T14:49:32.207Z,31.00
2022-09-16T14:52:04.340Z,30.60
2022-09-16T14:54:31.749Z,30.40
2022-09-16T14:57:00.042Z,30.30
2022-09-16T14:59:38.521Z,30.60
2022-09-16T15:02:23.589Z,30.70
2022-09-16T15:05:38.661Z,30.70
2022-09-16T15:08:23.983Z,31.20
2022-09-16T15:10:56.921Z,31.60
2022-09-16T15:13:30.480Z,32.00
2022-09-16T15:16:08.507Z,32.20
2022-09-16T15:18:54.705Z,32.30
2022-09-16T15:21:23.709Z,32.60
2022-09-16T15:23:52.993Z,32.30
2022-09-16T15:26:23.265Z,31.90
2022-09-16T15:28:52.532Z,31.50
2022-09-16T15:31:32.319Z,31.00
2022-09-16T15:34:01.323Z,30.70
2022-09-16T15:36:42.616Z,30.60
2022-09-16T15:39:28.397Z,30.60
2022-09-16T15:42:16.743Z,30.60
2022-09-16T15:45:12.385Z,30.50
2022-09-16T15:47:56.180Z,30.30
2022-09-16T15:50:24.698Z,30.30
2022-09-16T15:53:06.745Z,30.20
2022-09-16T15:55:49.086Z,30.20
2022-09-16T15:58:20.452Z,30.00
2022-09-16T16:01:11.788Z,29.90
2022-09-16T16:03:44.708Z,29.70
2022-09-16T16:06:12.259Z,29.50
2022-09-16T16:08:40.283Z,29.40
2022-09-16T16:11:18.866Z,29.30
2022-09-16T16:13:47.123Z,29.20
2022-09-16T16:16:15.823Z,29.00
2022-09-16T16:18:44.779Z,28.90
2022-09-16T16:21:15.656Z,28.80
2022-09-16T16:23:43.220Z,28.80
2022-09-16T16:26:11.900Z,28.70
2022-09-16T16:28:39.167Z,28.60
2022-09-16T16:31:17.826Z,28.50
2022-09-16T16:33:47.512Z,28.50
2022-09-16T16:36:16.909Z,28.30
2022-09-16T16:38:45.623Z,28.20
2022-09-16T16:41:13.630Z,28.10
2022-09-16T16:43:40.999Z,27.90
2022-09-16T16:46:08.925Z,27.80
2022-09-16T16:48:35.959Z,27.80
2022-09-16T16:51:06.661Z,27.70
2022-09-16T16:53:34.156Z,27.60
2022-09-16T16:56:15.072Z,27.40
2022-09-16T16:58:45.572Z,27.30
2022-09-16T17:01:18.682Z,27.10
2022-09-16T17:03:49.843Z,27.00
2022-09-16T17:06:18.125Z,26.90
2022-09-16T17:08:45.147Z,26.90
2022-09-16T17:11:14.879Z,26.80
2022-09-16T17:13:46.833Z,26.70
2022-09-16T17:16:18.038Z,26.70
2022-09-16T17:18:45.376Z,26.60
2022-09-16T17:21:16.691Z,26.50
2022-09-16T17:23:44.265Z,26.50
2022-09-16T17:26:12.465Z,26.50
2022-09-16T17:28:41.185Z,26.50
2022-09-16T17:31:10.341Z,26.40
2022-09-16T17:33:37.606Z,26.30
2022-09-16T17:36:06.668Z,26.30
2022-09-16T17:38:34.060Z,26.20
2022-09-16T17:41:12.416Z,26.10
2022-09-16T17:43:40.326Z,26.10
2022-09-16T17:46:14.012Z,26.10
2022-09-16T17:48:41.911Z,26.00
2022-09-16T17:51:09.678Z,26.00
2022-09-16T17:53:37.810Z,26.00
2022-09-16T17:56:12.408Z,26.00
2022-09-16T17:58:41.600Z,25.90
2022-09-16T18:01:12.560Z,25.90
2022-09-16T18:03:41.321Z,25.90
2022-09-16T18:06:10.476Z,25.80
2022-09-16T18:08:38.624Z,25.80
2022-09-16T18:11:06.712Z,25.70
2022-09-16T18:13:33.703Z,25.70
2022-09-16T18:16:07.272Z,25.50
2022-09-16T18:18:36.684Z,25.40
2022-09-16T18:21:06.153Z,25.30
2022-09-16T18:23:33.714Z,25.20
2022-09-16T18:26:05.975Z,25.20
2022-09-16T18:28:58.287Z,25.20
2022-09-16T18:31:24.750Z,25.20
2022-09-16T18:33:55.925Z,25.20
2022-09-16T18:36:25.545Z,25.10
2022-09-16T18:38:54.671Z,25.00
2022-09-16T18:41:24.457Z,24.90
2022-09-16T18:44:00.014Z,24.80
2022-09-16T18:46:32.278Z,24.70
2022-09-16T18:49:00.133Z,24.60
2022-09-16T18:51:30.059Z,24.60
2022-09-16T18:54:02.236Z,24.60
2022-09-16T18:56:32.157Z,24.50
2022-09-16T18:59:21.036Z,24.50
2022-09-16T19:01:49.923Z,24.40
2022-09-16T19:04:20.010Z,24.30
2022-09-16T19:06:49.696Z,24.30
2022-09-16T19:09:20.248Z,24.20
2022-09-16T19:11:47.858Z,24.10
2022-09-16T19:14:15.566Z,24.10
2022-09-16T19:16:44.891Z,24.00
2022-09-16T19:19:14.488Z,24.00
2022-09-16T19:21:43.008Z,23.90
2022-09-16T19:24:19.006Z,23.90
2022-09-16T19:26:47.220Z,23.90
2022-09-16T19:29:15.639Z,23.90
2022-09-16T19:31:45.940Z,23.80
2022-09-16T19:34:14.808Z,23.80
2022-09-16T19:36:42.737Z,23.80
2022-09-16T19:39:12.156Z,23.70
2022-09-16T19:41:41.044Z,23.70
2022-09-16T19:44:12.178Z,23.70
2022-09-16T19:46:40.483Z,23.60
2022-09-16T19:49:08.419Z,23.60
2022-09-16T19:51:36.092Z,23.60
2022-09-16T19:54:03.633Z,23.50
2022-09-16T19:56:33.358Z,23.40
2022-09-16T19:59:01.765Z,23.40
2022-09-16T20:01:31.886Z,23.30
2022-09-16T20:03:59.746Z,23.30
2022-09-16T20:06:30.825Z,23.20
2022-09-16T20:09:00.087Z,23.20
2022-09-16T20:11:30.157Z,23.20
2022-09-16T20:14:00.390Z,23.10
2022-09-16T20:16:37.735Z,23.10
2022-09-16T20:19:07.982Z,23.10
2022-09-16T20:21:36.047Z,23.00
2022-09-16T20:24:05.953Z,23.00
2022-09-16T20:26:34.174Z,22.90
2022-09-16T20:29:01.830Z,22.90
2022-09-16T20:31:32.561Z,22.90
2022-09-16T20:34:00.344Z,22.80
2022-09-16T20:36:32.040Z,22.80
2022-09-16T20:39:00.250Z,22.80
2022-09-16T20:41:29.828Z,22.70
2022-09-16T20:43:57.574Z,22.70
2022-09-16T20:46:31.080Z,22.70
2022-09-16T20:48:59.513Z,22.70
2022-09-16T20:51:29.458Z,22.70
2022-09-16T20:53:58.826Z,22.70
2022-09-16T20:56:30.412Z,22.80
2022-09-16T20:59:02.425Z,22.80
2022-09-16T21:01:34.537Z,22.80
2022-09-16T21:04:05.301Z,22.90
2022-09-16T21:06:34.718Z,22.90
2022-09-16T21:09:05.498Z,22.90
2022-09-16T21:11:33.285Z,22.90
2022-09-16T21:14:02.328Z,22.90
2022-09-16T21:16:31.918Z,22.90
2022-09-16T21:19:00.855Z,22.90
2022-09-16T21:21:28.837Z,22.80
2022-09-16T21:23:57.875Z,22.80
2022-09-16T21:26:31.151Z,22.70
2022-09-16T21:29:04.015Z,22.60
2022-09-16T21:31:34.534Z,22.50
2022-09-16T21:34:03.154Z,22.50
2022-09-16T21:36:30.676Z,22.40
2022-09-16T21:38:58.463Z,22.40
2022-09-16T21:41:26.591Z,22.40
2022-09-16T21:43:55.837Z,22.30
2022-09-16T21:46:25.868Z,22.30
2022-09-16T21:48:58.392Z,22.30
2022-09-16T21:51:25.609Z,22.30
2022-09-16T21:53:52.852Z,22.20
2022-09-16T21:56:21.676Z,22.20
2022-09-16T21:58:50.230Z,22.20
2022-09-16T22:01:21.229Z,22.20
2022-09-16T22:04:03.301Z,22.20
2022-09-16T22:06:30.803Z,22.20
2022-09-16T22:09:00.986Z,22.10
2022-09-16T22:11:30.732Z,22.10
2022-09-16T22:14:00.746Z,22.10
2022-09-16T22:16:30.776Z,22.00
2022-09-16T22:19:02.999Z,22.00
2022-09-16T22:21:32.463Z,21.90
2022-09-16T22:24:00.769Z,21.80
2022-09-16T22:26:29.108Z,21.70
2022-09-16T22:28:56.576Z,21.70
2022-09-16T22:31:25.022Z,21.60
2022-09-16T22:33:53.871Z,21.50
2022-09-16T22:36:26.663Z,21.40
2022-09-16T22:39:00.913Z,21.40
2022-09-16T22:41:28.832Z,21.20
2022-09-16T22:43:56.035Z,21.10
2022-09-16T22:46:26.309Z,21.10
2022-09-16T22:48:55.321Z,21.10
2022-09-16T22:51:22.608Z,21.00
2022-09-16T22:53:50.181Z,21.00
2022-09-16T22:56:20.200Z,20.90
2022-09-16T22:58:51.415Z,20.90
2022-09-16T23:01:20.253Z,20.90
2022-09-16T23:03:51.693Z,20.90
2022-09-16T23:06:18.697Z,20.90
2022-09-16T23:08:46.438Z,21.00
2022-09-16T23:11:22.092Z,21.00
2022-09-16T23:13:50.394Z,21.00
2022-09-16T23:16:20.988Z,20.90
2022-09-16T23:18:49.128Z,20.90
2022-09-16T23:21:19.198Z,20.90
2022-09-16T23:23:49.746Z,20.90
2022-09-16T23:26:22.282Z,20.90
2022-09-16T23:28:54.487Z,20.90
2022-09-16T23:31:25.303Z,20.90
2022-09-16T23:33:53.196Z,20.90
2022-09-16T23:36:20.908Z,20.90
2022-09-16T23:38:48.516Z,21.00
2022-09-16T23:41:19.927Z,20.90
2022-09-16T23:43:48.562Z,20.80
2022-09-16T23:46:17.603Z,20.80
2022-09-16T23:48:45.241Z,20.80
2022-09-16T23:51:14.124Z,20.90
2022-09-16T23:53:45.127Z,20.90
2022-09-16T23:56:14.062Z,20.90
2022-09-16T23:58:45.605Z,20.80
